sensor_id;sensor_type;location;lat;lon;timestamp;temperature;humidity
35240;DHT22;21376;50.954;4.716;2023-11-19T00:00:25;13.80;99.90
35240;DHT22;21376;50.954;4.716;2023-11-19T00:02:54;13.80;99.90
35240;DHT22;21376;50.954;4.716;2023-11-19T00:05:22;13.90;99.90
35240;DHT22;21376;50.954;4.716;2023-11-19T00:07:51;13.80;99.90
35240;DHT22;21376;50.954;4.716;2023-11-19T00:10:17;13.80;99.90
35240;DHT22;21376;50.954;4.716;2023-11-19T00:12:46;13.70;99.90
35240;DHT22;21376;50.954;4.716;2023-11-19T00:15:18;13.70;99.90
35240;DHT22;21376;50.954;4.716;2023-11-19T00:17:59;13.70;99.90
35240;DHT22;21376;50.954;4.716;2023-11-19T00:20:40;13.70;99.90
35240;DHT22;21376;50.954;4.716;2023-11-19T00:23:10;13.60;99.90
35240;DHT22;21376;50.954;4.716;2023-11-19T00:26:10;13.60;99.90
35240;DHT22;21376;50.954;4.716;2023-11-19T00:28:39;13.60;99.90
35240;DHT22;21376;50.954;4.716;2023-11-19T00:31:08;13.60;99.90
35240;DHT22;21376;50.954;4.716;2023-11-19T00:33:34;13.70;99.90
35240;DHT22;21376;50.954;4.716;2023-11-19T00:36:03;13.60;99.90
35240;DHT22;21376;50.954;4.716;2023-11-19T00:38:29;13.60;99.90
35240;DHT22;21376;50.954;4.716;2023-11-19T00:40:56;13.70;99.90
35240;DHT22;21376;50.954;4.716;2023-11-19T00:43:22;13.70;99.90
35240;DHT22;21376;50.954;4.716;2023-11-19T00:45:50;13.60;99.90
35240;DHT22;21376;50.954;4.716;2023-11-19T00:48:18;13.60;99.90
35240;DHT22;21376;50.954;4.716;2023-11-19T00:50:44;13.60;99.90
35240;DHT22;21376;50.954;4.716;2023-11-19T00:53:15;13.70;99.90
35240;DHT22;21376;50.954;4.716;2023-11-19T00:55:41;13.60;99.90
35240;DHT22;21376;50.954;4.716;2023-11-19T00:58:10;13.60;99.90
35240;DHT22;21376;50.954;4.716;2023-11-19T01:00:39;13.70;99.90
35240;DHT22;21376;50.954;4.716;2023-11-19T01:03:07;13.80;99.90
35240;DHT22;21376;50.954;4.716;2023-11-19T01:05:33;13.90;99.90
35240;DHT22;21376;50.954;4.716;2023-11-19T01:07:59;13.90;99.90
35240;DHT22;21376;50.954;4.716;2023-11-19T01:10:28;13.90;99.90
35240;DHT22;21376;50.954;4.716;2023-11-19T01:12:55;14.00;99.90
35240;DHT22;21376;50.954;4.716;2023-11-19T01:15:20;13.90;99.90
35240;DHT22;21376;50.954;4.716;2023-11-19T01:17:50;13.80;99.90
35240;DHT22;21376;50.954;4.716;2023-11-19T01:20:18;13.80;99.90
35240;DHT22;21376;50.954;4.716;2023-11-19T01:22:48;13.80;99.90
35240;DHT22;21376;50.954;4.716;2023-11-19T01:25:15;13.80;99.90
35240;DHT22;21376;50.954;4.716;2023-11-19T01:27:43;13.80;99.90
35240;DHT22;21376;50.954;4.716;2023-11-19T01:30:12;13.80;99.90
35240;DHT22;21376;50.954;4.716;2023-11-19T01:32:41;13.90;99.90
35240;DHT22;21376;50.954;4.716;2023-11-19T01:35:14;13.90;99.90
35240;DHT22;21376;50.954;4.716;2023-11-19T01:37:46;13.90;99.90
35240;DHT22;21376;50.954;4.716;2023-11-19T01:40:20;13.80;99.90
35240;DHT22;21376;50.954;4.716;2023-11-19T01:42:53;13.60;99.90
35240;DHT22;21376;50.954;4.716;2023-11-19T01:45:29;13.40;99.90
35240;DHT22;21376;50.954;4.716;2023-11-19T01:48:02;13.50;99.90
35240;DHT22;21376;50.954;4.716;2023-11-19T01:50:30;13.60;99.90
35240;DHT22;21376;50.954;4.716;2023-11-19T01:53:01;13.60;99.90
35240;DHT22;21376;50.954;4.716;2023-11-19T01:55:35;13.60;99.90
35240;DHT22;21376;50.954;4.716;2023-11-19T01:58:04;13.60;99.90
35240;DHT22;21376;50.954;4.716;2023-11-19T02:00:31;13.50;99.90
35240;DHT22;21376;50.954;4.716;2023-11-19T02:03:21;13.50;99.90
35240;DHT22;21376;50.954;4.716;2023-11-19T02:05:49;13.50;99.90
35240;DHT22;21376;50.954;4.716;2023-11-19T02:08:17;13.60;99.90
35240;DHT22;21376;50.954;4.716;2023-11-19T02:10:46;13.50;99.90
35240;DHT22;21376;50.954;4.716;2023-11-19T02:13:16;13.40;99.90
35240;DHT22;21376;50.954;4.716;2023-11-19T02:15:47;13.40;99.90
35240;DHT22;21376;50.954;4.716;2023-11-19T02:18:25;13.30;99.90
35240;DHT22;21376;50.954;4.716;2023-11-19T02:20:59;13.30;99.90
35240;DHT22;21376;50.954;4.716;2023-11-19T02:23:28;13.30;99.90
35240;DHT22;21376;50.954;4.716;2023-11-19T02:49:24;13.10;99.90
35240;DHT22;21376;50.954;4.716;2023-11-19T02:51:53;13.10;99.90
35240;DHT22;21376;50.954;4.716;2023-11-19T02:54:50;13.20;99.90
35240;DHT22;21376;50.954;4.716;2023-11-19T03:00:29;13.20;99.90
35240;DHT22;21376;50.954;4.716;2023-11-19T03:03:13;13.10;99.90
35240;DHT22;21376;50.954;4.716;2023-11-19T03:05:48;13.00;99.90
35240;DHT22;21376;50.954;4.716;2023-11-19T03:08:24;13.00;99.90
35240;DHT22;21376;50.954;4.716;2023-11-19T03:10:53;13.00;99.90
35240;DHT22;21376;50.954;4.716;2023-11-19T03:13:37;12.80;99.90
35240;DHT22;21376;50.954;4.716;2023-11-19T03:16:06;12.70;99.90
35240;DHT22;21376;50.954;4.716;2023-11-19T03:18:33;12.70;99.90
35240;DHT22;21376;50.954;4.716;2023-11-19T03:21:02;12.60;99.90
35240;DHT22;21376;50.954;4.716;2023-11-19T03:23:31;12.60;99.90
35240;DHT22;21376;50.954;4.716;2023-11-19T03:25:57;12.70;99.90
35240;DHT22;21376;50.954;4.716;2023-11-19T03:28:26;12.60;99.90
35240;DHT22;21376;50.954;4.716;2023-11-19T03:30:55;12.70;99.90
35240;DHT22;21376;50.954;4.716;2023-11-19T03:33:24;12.60;99.90
35240;DHT22;21376;50.954;4.716;2023-11-19T03:35:56;12.60;99.90
35240;DHT22;21376;50.954;4.716;2023-11-19T03:38:25;12.50;99.90
35240;DHT22;21376;50.954;4.716;2023-11-19T03:40:54;12.40;99.90
35240;DHT22;21376;50.954;4.716;2023-11-19T03:43:22;12.50;99.90
35240;DHT22;21376;50.954;4.716;2023-11-19T03:46:03;12.40;99.90
35240;DHT22;21376;50.954;4.716;2023-11-19T03:48:31;12.40;99.90
35240;DHT22;21376;50.954;4.716;2023-11-19T03:51:02;12.40;99.90
35240;DHT22;21376;50.954;4.716;2023-11-19T03:53:30;12.40;99.90
35240;DHT22;21376;50.954;4.716;2023-11-19T03:56:33;12.40;99.90
35240;DHT22;21376;50.954;4.716;2023-11-19T03:59:02;12.30;99.90
35240;DHT22;21376;50.954;4.716;2023-11-19T04:01:28;12.10;99.90
35240;DHT22;21376;50.954;4.716;2023-11-19T04:03:55;12.30;99.90
35240;DHT22;21376;50.954;4.716;2023-11-19T04:06:25;12.30;99.90
35240;DHT22;21376;50.954;4.716;2023-11-19T04:08:53;12.30;99.90
35240;DHT22;21376;50.954;4.716;2023-11-19T04:11:22;12.20;99.90
35240;DHT22;21376;50.954;4.716;2023-11-19T04:13:47;12.10;99.90
35240;DHT22;21376;50.954;4.716;2023-11-19T04:16:16;12.10;99.90
35240;DHT22;21376;50.954;4.716;2023-11-19T04:18:45;12.10;99.90
35240;DHT22;21376;50.954;4.716;2023-11-19T04:21:47;12.20;99.90
35240;DHT22;21376;50.954;4.716;2023-11-19T04:24:16;12.20;99.90
35240;DHT22;21376;50.954;4.716;2023-11-19T04:26:42;12.10;99.90
35240;DHT22;21376;50.954;4.716;2023-11-19T05:16:01;11.90;99.90
35240;DHT22;21376;50.954;4.716;2023-11-19T05:18:27;12.00;99.90
35240;DHT22;21376;50.954;4.716;2023-11-19T05:20:53;11.90;99.90
35240;DHT22;21376;50.954;4.716;2023-11-19T05:23:19;12.00;99.90
35240;DHT22;21376;50.954;4.716;2023-11-19T05:25:50;11.80;99.90
35240;DHT22;21376;50.954;4.716;2023-11-19T05:28:16;11.70;99.90
35240;DHT22;21376;50.954;4.716;2023-11-19T05:30:42;11.70;99.90
35240;DHT22;21376;50.954;4.716;2023-11-19T05:33:08;11.80;99.90
35240;DHT22;21376;50.954;4.716;2023-11-19T05:35:37;11.70;99.90
35240;DHT22;21376;50.954;4.716;2023-11-19T05:38:06;11.70;99.90
35240;DHT22;21376;50.954;4.716;2023-11-19T05:40:34;11.60;99.90
35240;DHT22;21376;50.954;4.716;2023-11-19T05:43:03;11.70;99.90
35240;DHT22;21376;50.954;4.716;2023-11-19T05:45:29;11.60;99.90
35240;DHT22;21376;50.954;4.716;2023-11-19T05:47:55;11.50;99.90
35240;DHT22;21376;50.954;4.716;2023-11-19T05:50:23;11.50;99.90
35240;DHT22;21376;50.954;4.716;2023-11-19T05:52:49;11.50;99.90
35240;DHT22;21376;50.954;4.716;2023-11-19T05:55:17;11.40;99.90
35240;DHT22;21376;50.954;4.716;2023-11-19T05:57:45;11.40;99.90
35240;DHT22;21376;50.954;4.716;2023-11-19T06:00:13;11.50;99.90
35240;DHT22;21376;50.954;4.716;2023-11-19T06:02:43;11.40;99.90
35240;DHT22;21376;50.954;4.716;2023-11-19T06:05:12;11.40;99.90
35240;DHT22;21376;50.954;4.716;2023-11-19T06:07:41;11.50;99.90
35240;DHT22;21376;50.954;4.716;2023-11-19T06:10:09;11.50;99.90
35240;DHT22;21376;50.954;4.716;2023-11-19T06:12:39;11.50;99.90
35240;DHT22;21376;50.954;4.716;2023-11-19T06:23:43;11.40;99.90
35240;DHT22;21376;50.954;4.716;2023-11-19T06:26:09;11.30;99.90
35240;DHT22;21376;50.954;4.716;2023-11-19T06:28:37;11.40;99.90
35240;DHT22;21376;50.954;4.716;2023-11-19T06:31:03;11.30;99.90
35240;DHT22;21376;50.954;4.716;2023-11-19T06:33:31;11.30;99.90
35240;DHT22;21376;50.954;4.716;2023-11-19T06:36:00;11.30;99.90
35240;DHT22;21376;50.954;4.716;2023-11-19T06:38:29;11.40;99.90
35240;DHT22;21376;50.954;4.716;2023-11-19T06:41:00;11.40;99.90
35240;DHT22;21376;50.954;4.716;2023-11-19T06:43:30;11.40;99.90
35240;DHT22;21376;50.954;4.716;2023-11-19T06:46:13;11.40;99.90
35240;DHT22;21376;50.954;4.716;2023-11-19T06:48:40;11.40;99.90
35240;DHT22;21376;50.954;4.716;2023-11-19T06:51:12;11.40;99.90
35240;DHT22;21376;50.954;4.716;2023-11-19T06:53:38;11.30;99.90
35240;DHT22;21376;50.954;4.716;2023-11-19T06:56:28;11.30;99.90
35240;DHT22;21376;50.954;4.716;2023-11-19T06:58:55;11.30;99.90
35240;DHT22;21376;50.954;4.716;2023-11-19T07:01:24;11.30;99.90
35240;DHT22;21376;50.954;4.716;2023-11-19T07:03:53;11.30;99.90
35240;DHT22;21376;50.954;4.716;2023-11-19T07:06:22;11.30;99.90
35240;DHT22;21376;50.954;4.716;2023-11-19T07:08:52;11.30;99.90
35240;DHT22;21376;50.954;4.716;2023-11-19T07:11:22;11.30;99.90
35240;DHT22;21376;50.954;4.716;2023-11-19T07:13:50;11.30;99.90
35240;DHT22;21376;50.954;4.716;2023-11-19T07:16:50;11.20;99.90
35240;DHT22;21376;50.954;4.716;2023-11-19T07:19:19;11.30;99.90
35240;DHT22;21376;50.954;4.716;2023-11-19T07:22:13;11.40;99.90
35240;DHT22;21376;50.954;4.716;2023-11-19T07:25:09;11.40;99.90
35240;DHT22;21376;50.954;4.716;2023-11-19T07:30:46;11.50;99.90
35240;DHT22;21376;50.954;4.716;2023-11-19T07:33:12;11.60;99.90
35240;DHT22;21376;50.954;4.716;2023-11-19T07:35:42;11.60;99.90
35240;DHT22;21376;50.954;4.716;2023-11-19T07:38:10;11.60;99.90
35240;DHT22;21376;50.954;4.716;2023-11-19T07:40:39;11.60;99.90
35240;DHT22;21376;50.954;4.716;2023-11-19T07:43:08;11.60;99.90
35240;DHT22;21376;50.954;4.716;2023-11-19T07:45:42;11.70;99.90
35240;DHT22;21376;50.954;4.716;2023-11-19T07:48:09;11.70;99.90
35240;DHT22;21376;50.954;4.716;2023-11-19T07:50:40;11.80;99.90
35240;DHT22;21376;50.954;4.716;2023-11-19T07:53:09;11.90;99.90
35240;DHT22;21376;50.954;4.716;2023-11-19T07:55:36;11.90;99.90
35240;DHT22;21376;50.954;4.716;2023-11-19T07:58:05;12.00;99.90
35240;DHT22;21376;50.954;4.716;2023-11-19T08:00:44;12.10;99.90
35240;DHT22;21376;50.954;4.716;2023-11-19T08:03:13;12.20;99.90
35240;DHT22;21376;50.954;4.716;2023-11-19T08:05:42;12.30;99.90
35240;DHT22;21376;50.954;4.716;2023-11-19T08:08:11;12.30;99.90
35240;DHT22;21376;50.954;4.716;2023-11-19T08:10:41;12.40;99.90
35240;DHT22;21376;50.954;4.716;2023-11-19T08:13:07;12.40;99.90
35240;DHT22;21376;50.954;4.716;2023-11-19T08:15:36;12.50;99.90
35240;DHT22;21376;50.954;4.716;2023-11-19T08:21:07;12.90;99.90
35240;DHT22;21376;50.954;4.716;2023-11-19T08:23:34;12.90;99.90
35240;DHT22;21376;50.954;4.716;2023-11-19T08:26:01;12.90;99.90
35240;DHT22;21376;50.954;4.716;2023-11-19T08:28:28;12.90;99.90
35240;DHT22;21376;50.954;4.716;2023-11-19T08:30:53;12.90;99.90
35240;DHT22;21376;50.954;4.716;2023-11-19T08:33:30;12.90;99.90
35240;DHT22;21376;50.954;4.716;2023-11-19T08:36:04;13.00;99.90
35240;DHT22;21376;50.954;4.716;2023-11-19T08:38:46;13.10;99.90
35240;DHT22;21376;50.954;4.716;2023-11-19T08:41:19;13.20;99.90
35240;DHT22;21376;50.954;4.716;2023-11-19T08:43:48;13.30;99.90
35240;DHT22;21376;50.954;4.716;2023-11-19T08:46:17;13.40;99.90
35240;DHT22;21376;50.954;4.716;2023-11-19T08:48:46;13.80;99.90
35240;DHT22;21376;50.954;4.716;2023-11-19T08:51:14;14.60;99.90
35240;DHT22;21376;50.954;4.716;2023-11-19T08:53:52;15.50;99.90
35240;DHT22;21376;50.954;4.716;2023-11-19T08:56:21;15.70;99.90
35240;DHT22;21376;50.954;4.716;2023-11-19T08:58:50;16.30;99.90
35240;DHT22;21376;50.954;4.716;2023-11-19T09:01:17;16.20;99.90
35240;DHT22;21376;50.954;4.716;2023-11-19T09:03:43;15.40;99.90
35240;DHT22;21376;50.954;4.716;2023-11-19T09:06:12;14.90;99.90
35240;DHT22;21376;50.954;4.716;2023-11-19T09:08:39;14.30;99.90
35240;DHT22;21376;50.954;4.716;2023-11-19T09:11:08;14.40;99.90
35240;DHT22;21376;50.954;4.716;2023-11-19T09:13:37;14.20;99.90
35240;DHT22;21376;50.954;4.716;2023-11-19T09:16:06;14.10;99.90
35240;DHT22;21376;50.954;4.716;2023-11-19T09:18:55;14.00;99.90
35240;DHT22;21376;50.954;4.716;2023-11-19T09:21:30;13.70;99.90
35240;DHT22;21376;50.954;4.716;2023-11-19T09:23:56;13.30;99.90
35240;DHT22;21376;50.954;4.716;2023-11-19T09:26:26;13.00;99.90
35240;DHT22;21376;50.954;4.716;2023-11-19T09:29:14;12.90;99.90
35240;DHT22;21376;50.954;4.716;2023-11-19T09:31:43;13.60;99.90
35240;DHT22;21376;50.954;4.716;2023-11-19T09:34:11;14.80;99.90
35240;DHT22;21376;50.954;4.716;2023-11-19T09:36:40;15.40;99.90
35240;DHT22;21376;50.954;4.716;2023-11-19T09:39:29;16.00;99.90
35240;DHT22;21376;50.954;4.716;2023-11-19T09:41:58;16.60;99.90
35240;DHT22;21376;50.954;4.716;2023-11-19T09:44:43;17.90;99.90
35240;DHT22;21376;50.954;4.716;2023-11-19T09:47:21;18.00;99.90
35240;DHT22;21376;50.954;4.716;2023-11-19T09:49:49;18.30;99.90
35240;DHT22;21376;50.954;4.716;2023-11-19T09:52:18;18.50;99.90
35240;DHT22;21376;50.954;4.716;2023-11-19T09:54:44;18.80;99.90
35240;DHT22;21376;50.954;4.716;2023-11-19T09:57:44;18.30;99.90
35240;DHT22;21376;50.954;4.716;2023-11-19T10:00:17;18.80;99.90
35240;DHT22;21376;50.954;4.716;2023-11-19T10:02:49;19.30;99.90
35240;DHT22;21376;50.954;4.716;2023-11-19T10:05:16;19.50;99.90
35240;DHT22;21376;50.954;4.716;2023-11-19T10:07:46;19.90;99.90
35240;DHT22;21376;50.954;4.716;2023-11-19T10:10:13;20.20;99.90
35240;DHT22;21376;50.954;4.716;2023-11-19T10:12:46;20.40;99.90
35240;DHT22;21376;50.954;4.716;2023-11-19T10:15:24;19.90;99.90
35240;DHT22;21376;50.954;4.716;2023-11-19T10:17:56;18.60;99.90
35240;DHT22;21376;50.954;4.716;2023-11-19T10:20:26;17.70;99.90
35240;DHT22;21376;50.954;4.716;2023-11-19T10:22:57;17.20;99.90
35240;DHT22;21376;50.954;4.716;2023-11-19T10:25:33;17.80;99.90
35240;DHT22;21376;50.954;4.716;2023-11-19T10:28:02;18.20;99.90
35240;DHT22;21376;50.954;4.716;2023-11-19T10:30:31;18.40;99.90
35240;DHT22;21376;50.954;4.716;2023-11-19T10:33:13;18.60;99.90
35240;DHT22;21376;50.954;4.716;2023-11-19T10:36:01;17.80;99.90
35240;DHT22;21376;50.954;4.716;2023-11-19T10:38:30;17.20;99.90
35240;DHT22;21376;50.954;4.716;2023-11-19T10:41:29;16.60;99.90
35240;DHT22;21376;50.954;4.716;2023-11-19T10:43:57;15.80;99.90
35240;DHT22;21376;50.954;4.716;2023-11-19T10:46:45;15.80;99.90
35240;DHT22;21376;50.954;4.716;2023-11-19T10:49:17;15.70;99.90
35240;DHT22;21376;50.954;4.716;2023-11-19T10:51:51;15.60;99.90
35240;DHT22;21376;50.954;4.716;2023-11-19T10:54:22;15.50;99.90
35240;DHT22;21376;50.954;4.716;2023-11-19T10:56:59;15.30;99.90
35240;DHT22;21376;50.954;4.716;2023-11-19T10:59:31;15.10;99.90
35240;DHT22;21376;50.954;4.716;2023-11-19T11:02:03;14.70;99.90
35240;DHT22;21376;50.954;4.716;2023-11-19T11:04:33;14.50;99.90
35240;DHT22;21376;50.954;4.716;2023-11-19T11:07:08;14.20;99.90
35240;DHT22;21376;50.954;4.716;2023-11-19T11:09:57;14.10;99.90
35240;DHT22;21376;50.954;4.716;2023-11-19T11:12:24;13.90;99.90
35240;DHT22;21376;50.954;4.716;2023-11-19T11:14:52;13.90;99.90
35240;DHT22;21376;50.954;4.716;2023-11-19T11:17:24;14.20;99.90
35240;DHT22;21376;50.954;4.716;2023-11-19T11:19:54;14.50;99.90
35240;DHT22;21376;50.954;4.716;2023-11-19T11:22:23;14.90;99.90
35240;DHT22;21376;50.954;4.716;2023-11-19T11:28:18;15.00;99.90
35240;DHT22;21376;50.954;4.716;2023-11-19T11:31:08;14.80;99.90
35240;DHT22;21376;50.954;4.716;2023-11-19T11:34:01;14.60;99.90
35240;DHT22;21376;50.954;4.716;2023-11-19T11:36:30;14.30;99.90
35240;DHT22;21376;50.954;4.716;2023-11-19T11:39:09;14.20;99.90
35240;DHT22;21376;50.954;4.716;2023-11-19T11:41:36;14.40;99.90
35240;DHT22;21376;50.954;4.716;2023-11-19T11:44:03;14.70;99.90
35240;DHT22;21376;50.954;4.716;2023-11-19T11:49:10;15.60;99.90
35240;DHT22;21376;50.954;4.716;2023-11-19T11:54:36;17.10;99.90
35240;DHT22;21376;50.954;4.716;2023-11-19T11:57:08;17.40;99.90
35240;DHT22;21376;50.954;4.716;2023-11-19T11:59:50;17.70;99.90
35240;DHT22;21376;50.954;4.716;2023-11-19T12:02:19;17.80;99.90
35240;DHT22;21376;50.954;4.716;2023-11-19T12:05:20;18.00;99.90
35240;DHT22;21376;50.954;4.716;2023-11-19T12:08:07;17.90;99.90
35240;DHT22;21376;50.954;4.716;2023-11-19T12:10:53;17.70;99.90
35240;DHT22;21376;50.954;4.716;2023-11-19T12:13:22;17.20;99.90
35240;DHT22;21376;50.954;4.716;2023-11-19T12:18:28;16.90;99.90
35240;DHT22;21376;50.954;4.716;2023-11-19T12:20:58;16.30;99.90
35240;DHT22;21376;50.954;4.716;2023-11-19T12:23:33;16.00;99.90
35240;DHT22;21376;50.954;4.716;2023-11-19T12:26:03;15.90;99.90
35240;DHT22;21376;50.954;4.716;2023-11-19T12:28:30;15.80;99.90
35240;DHT22;21376;50.954;4.716;2023-11-19T12:31:08;15.90;99.90
35240;DHT22;21376;50.954;4.716;2023-11-19T12:33:38;15.90;99.90
35240;DHT22;21376;50.954;4.716;2023-11-19T12:36:07;15.70;99.90
35240;DHT22;21376;50.954;4.716;2023-11-19T12:38:36;15.50;99.90
35240;DHT22;21376;50.954;4.716;2023-11-19T12:44:18;14.70;99.90
35240;DHT22;21376;50.954;4.716;2023-11-19T12:46:59;14.60;99.90
35240;DHT22;21376;50.954;4.716;2023-11-19T12:49:34;14.30;99.90
35240;DHT22;21376;50.954;4.716;2023-11-19T12:52:11;14.10;99.90
35240;DHT22;21376;50.954;4.716;2023-11-19T12:54:43;14.20;99.90
35240;DHT22;21376;50.954;4.716;2023-11-19T12:57:39;14.50;99.90
35240;DHT22;21376;50.954;4.716;2023-11-19T13:00:18;14.70;99.90
35240;DHT22;21376;50.954;4.716;2023-11-19T13:02:54;15.10;99.90
35240;DHT22;21376;50.954;4.716;2023-11-19T13:08:43;15.20;99.90
35240;DHT22;21376;50.954;4.716;2023-11-19T13:11:14;15.30;99.90
35240;DHT22;21376;50.954;4.716;2023-11-19T13:17:05;14.50;99.90
35240;DHT22;21376;50.954;4.716;2023-11-19T13:19:34;14.20;99.90
35240;DHT22;21376;50.954;4.716;2023-11-19T13:22:03;14.20;99.90
35240;DHT22;21376;50.954;4.716;2023-11-19T13:28:17;14.10;99.90
35240;DHT22;21376;50.954;4.716;2023-11-19T13:30:46;14.00;99.90
35240;DHT22;21376;50.954;4.716;2023-11-19T13:33:14;14.00;99.90
35240;DHT22;21376;50.954;4.716;2023-11-19T13:35:43;13.90;99.90
35240;DHT22;21376;50.954;4.716;2023-11-19T14:04:06;13.80;99.90
35240;DHT22;21376;50.954;4.716;2023-11-19T14:06:33;13.60;99.90
35240;DHT22;21376;50.954;4.716;2023-11-19T14:08:59;13.50;99.90
35240;DHT22;21376;50.954;4.716;2023-11-19T14:11:26;13.40;99.90
35240;DHT22;21376;50.954;4.716;2023-11-19T14:13:52;13.40;99.90
35240;DHT22;21376;50.954;4.716;2023-11-19T14:16:20;13.30;99.90
35240;DHT22;21376;50.954;4.716;2023-11-19T14:18:49;13.30;99.90
35240;DHT22;21376;50.954;4.716;2023-11-19T14:21:18;13.40;99.90
35240;DHT22;21376;50.954;4.716;2023-11-19T14:23:44;13.50;99.90
35240;DHT22;21376;50.954;4.716;2023-11-19T14:26:13;13.70;99.90
35240;DHT22;21376;50.954;4.716;2023-11-19T14:28:42;13.70;99.90
35240;DHT22;21376;50.954;4.716;2023-11-19T14:31:11;13.70;99.90
35240;DHT22;21376;50.954;4.716;2023-11-19T14:33:40;13.80;99.90
35240;DHT22;21376;50.954;4.716;2023-11-19T14:36:11;13.50;99.90
35240;DHT22;21376;50.954;4.716;2023-11-19T14:38:40;13.70;99.90
35240;DHT22;21376;50.954;4.716;2023-11-19T14:41:30;13.50;99.90
35240;DHT22;21376;50.954;4.716;2023-11-19T14:47:19;13.30;99.90
35240;DHT22;21376;50.954;4.716;2023-11-19T14:49:54;13.10;99.90
35240;DHT22;21376;50.954;4.716;2023-11-19T14:52:20;12.90;99.90
35240;DHT22;21376;50.954;4.716;2023-11-19T14:54:49;12.70;99.90
35240;DHT22;21376;50.954;4.716;2023-11-19T14:57:19;12.60;99.90
35240;DHT22;21376;50.954;4.716;2023-11-19T14:59:48;12.60;99.90
35240;DHT22;21376;50.954;4.716;2023-11-19T15:02:14;12.50;99.90
35240;DHT22;21376;50.954;4.716;2023-11-19T15:04:42;12.50;99.90
35240;DHT22;21376;50.954;4.716;2023-11-19T15:07:12;12.50;99.90
35240;DHT22;21376;50.954;4.716;2023-11-19T15:10:01;12.60;99.90
35240;DHT22;21376;50.954;4.716;2023-11-19T15:12:30;12.60;99.90
35240;DHT22;21376;50.954;4.716;2023-11-19T15:14:59;12.70;99.90
35240;DHT22;21376;50.954;4.716;2023-11-19T15:17:28;12.70;99.90
35240;DHT22;21376;50.954;4.716;2023-11-19T15:19:57;12.70;99.90
35240;DHT22;21376;50.954;4.716;2023-11-19T15:22:38;12.70;99.90
35240;DHT22;21376;50.954;4.716;2023-11-19T15:25:07;12.80;99.90
35240;DHT22;21376;50.954;4.716;2023-11-19T15:27:42;12.80;99.90
35240;DHT22;21376;50.954;4.716;2023-11-19T15:30:12;12.90;99.90
35240;DHT22;21376;50.954;4.716;2023-11-19T15:32:41;12.80;99.90
35240;DHT22;21376;50.954;4.716;2023-11-19T15:35:08;12.90;99.90
35240;DHT22;21376;50.954;4.716;2023-11-19T15:40:59;12.80;99.90
35240;DHT22;21376;50.954;4.716;2023-11-19T15:43:30;13.00;99.90
35240;DHT22;21376;50.954;4.716;2023-11-19T15:45:58;12.90;99.90
35240;DHT22;21376;50.954;4.716;2023-11-19T15:48:27;12.90;99.90
35240;DHT22;21376;50.954;4.716;2023-11-19T15:50:53;12.90;99.90
35240;DHT22;21376;50.954;4.716;2023-11-19T15:53:22;12.90;99.90
35240;DHT22;21376;50.954;4.716;2023-11-19T16:10:58;13.00;99.90
35240;DHT22;21376;50.954;4.716;2023-11-19T16:13:27;13.00;99.90
35240;DHT22;21376;50.954;4.716;2023-11-19T16:16:00;13.10;99.90
35240;DHT22;21376;50.954;4.716;2023-11-19T16:18:42;13.10;99.90
35240;DHT22;21376;50.954;4.716;2023-11-19T16:21:12;13.10;99.90
35240;DHT22;21376;50.954;4.716;2023-11-19T16:23:41;13.10;99.90
35240;DHT22;21376;50.954;4.716;2023-11-19T16:26:10;13.10;99.90
35240;DHT22;21376;50.954;4.716;2023-11-19T16:28:38;13.20;99.90
35240;DHT22;21376;50.954;4.716;2023-11-19T16:31:08;13.00;99.90
35240;DHT22;21376;50.954;4.716;2023-11-19T16:33:39;12.80;99.90
35240;DHT22;21376;50.954;4.716;2023-11-19T16:36:07;12.50;99.90
35240;DHT22;21376;50.954;4.716;2023-11-19T16:38:35;12.30;99.90
35240;DHT22;21376;50.954;4.716;2023-11-19T16:41:04;12.20;99.90
35240;DHT22;21376;50.954;4.716;2023-11-19T16:43:30;12.10;99.90
35240;DHT22;21376;50.954;4.716;2023-11-19T16:45:59;12.00;99.90
35240;DHT22;21376;50.954;4.716;2023-11-19T16:48:25;12.00;99.90
35240;DHT22;21376;50.954;4.716;2023-11-19T16:50:51;12.00;99.90
35240;DHT22;21376;50.954;4.716;2023-11-19T16:53:17;12.10;99.90
35240;DHT22;21376;50.954;4.716;2023-11-19T16:59:18;12.10;99.90
35240;DHT22;21376;50.954;4.716;2023-11-19T17:01:47;12.10;99.90
35240;DHT22;21376;50.954;4.716;2023-11-19T17:04:14;12.00;99.90
35240;DHT22;21376;50.954;4.716;2023-11-19T17:10:05;12.00;99.90
35240;DHT22;21376;50.954;4.716;2023-11-19T17:12:35;12.00;99.90
35240;DHT22;21376;50.954;4.716;2023-11-19T17:15:04;12.00;99.90
35240;DHT22;21376;50.954;4.716;2023-11-19T17:17:34;12.00;99.90
35240;DHT22;21376;50.954;4.716;2023-11-19T17:20:06;12.00;99.90
35240;DHT22;21376;50.954;4.716;2023-11-19T17:22:39;11.90;99.90
35240;DHT22;21376;50.954;4.716;2023-11-19T17:25:12;11.90;99.90
35240;DHT22;21376;50.954;4.716;2023-11-19T17:27:42;12.00;99.90
35240;DHT22;21376;50.954;4.716;2023-11-19T17:33:19;12.00;99.90
35240;DHT22;21376;50.954;4.716;2023-11-19T17:35:47;11.90;99.90
35240;DHT22;21376;50.954;4.716;2023-11-19T17:38:17;12.00;99.90
35240;DHT22;21376;50.954;4.716;2023-11-19T17:40:44;12.00;99.90
35240;DHT22;21376;50.954;4.716;2023-11-19T17:43:12;12.10;99.90
35240;DHT22;21376;50.954;4.716;2023-11-19T17:45:42;12.10;99.90
35240;DHT22;21376;50.954;4.716;2023-11-19T17:48:15;12.20;99.90
35240;DHT22;21376;50.954;4.716;2023-11-19T17:50:45;12.20;99.90
35240;DHT22;21376;50.954;4.716;2023-11-19T17:53:14;12.20;99.90
35240;DHT22;21376;50.954;4.716;2023-11-19T17:55:44;12.20;99.90
35240;DHT22;21376;50.954;4.716;2023-11-19T17:58:22;12.20;99.90
35240;DHT22;21376;50.954;4.716;2023-11-19T18:00:49;12.20;99.90
35240;DHT22;21376;50.954;4.716;2023-11-19T18:03:25;12.20;99.90
35240;DHT22;21376;50.954;4.716;2023-11-19T18:05:54;12.00;99.90
35240;DHT22;21376;50.954;4.716;2023-11-19T18:08:23;11.90;99.90
35240;DHT22;21376;50.954;4.716;2023-11-19T18:10:51;11.90;99.90
35240;DHT22;21376;50.954;4.716;2023-11-19T18:13:18;11.70;99.90
35240;DHT22;21376;50.954;4.716;2023-11-19T18:15:44;11.90;99.90
35240;DHT22;21376;50.954;4.716;2023-11-19T18:18:12;11.90;99.90
35240;DHT22;21376;50.954;4.716;2023-11-19T18:20:57;11.90;99.90
35240;DHT22;21376;50.954;4.716;2023-11-19T18:23:25;12.00;99.90
35240;DHT22;21376;50.954;4.716;2023-11-19T18:25:54;11.90;99.90
35240;DHT22;21376;50.954;4.716;2023-11-19T18:28:21;12.00;99.90
35240;DHT22;21376;50.954;4.716;2023-11-19T18:30:53;12.00;99.90
35240;DHT22;21376;50.954;4.716;2023-11-19T18:33:31;12.00;99.90
35240;DHT22;21376;50.954;4.716;2023-11-19T18:36:01;12.00;99.90
35240;DHT22;21376;50.954;4.716;2023-11-19T18:38:28;12.10;99.90
35240;DHT22;21376;50.954;4.716;2023-11-19T18:40:57;12.10;99.90
35240;DHT22;21376;50.954;4.716;2023-11-19T18:43:23;12.10;99.90
35240;DHT22;21376;50.954;4.716;2023-11-19T18:45:49;12.20;99.90